createdAt,value
2018-07-01T00:00:49.441Z,61.40
2018-07-01T00:01:49.516Z,61.43
2018-07-01T00:02:49.515Z,61.40
2018-07-01T00:03:49.454Z,61.50
2018-07-01T00:04:49.417Z,61.14
2018-07-01T00:05:49.503Z,61.14
2018-07-01T00:06:49.466Z,61.12
2018-07-01T00:07:49.489Z,61.27
2018-07-01T00:08:49.516Z,60.71
2018-07-01T00:09:49.516Z,61.14
2018-07-01T00:10:49.580Z,60.78
2018-07-01T00:11:49.508Z,60.89
2018-07-01T00:12:49.464Z,60.78
2018-07-01T00:13:49.507Z,60.76
2018-07-01T00:14:49.448Z,60.84
2018-07-01T00:15:49.458Z,61.02
2018-07-01T00:16:49.466Z,60.97
2018-07-01T00:17:49.491Z,61.22
2018-07-01T00:18:49.518Z,61.30
2018-07-01T00:19:49.491Z,61.48
2018-07-01T00:20:49.397Z,61.35
2018-07-01T00:21:49.467Z,61.40
2018-07-01T00:22:49.527Z,61.71
2018-07-01T00:23:49.477Z,61.66
2018-07-01T00:24:49.458Z,61.84
2018-07-01T00:25:49.419Z,61.99
2018-07-01T00:26:49.456Z,62.22
2018-07-01T00:27:49.546Z,62.33
2018-07-01T00:28:49.536Z,62.40
2018-07-01T00:29:49.437Z,62.40
2018-07-01T00:30:49.439Z,62.61
2018-07-01T00:31:49.469Z,62.50
2018-07-01T00:32:49.464Z,62.66
2018-07-01T00:33:49.499Z,62.61
2018-07-01T00:34:49.503Z,62.79
2018-07-01T00:35:49.505Z,62.79
2018-07-01T00:36:49.507Z,63.23
2018-07-01T00:37:49.508Z,63.13
2018-07-01T00:38:49.438Z,63.35
2018-07-01T00:39:49.509Z,63.77
2018-07-01T00:40:49.511Z,63.66
2018-07-01T00:41:49.511Z,64.31
2018-07-01T00:42:49.439Z,64.59
2018-07-01T00:43:49.441Z,64.98
2018-07-01T00:44:49.434Z,64.75
2018-07-01T00:45:49.571Z,65.14
2018-07-01T00:46:49.480Z,65.58
2018-07-01T00:47:49.417Z,66.14
2018-07-01T00:48:49.455Z,66.35
2018-07-01T00:49:49.438Z,66.77
2018-07-01T00:50:49.456Z,66.97
2018-07-01T00:51:49.547Z,67.39
2018-07-01T00:52:49.484Z,68.06
2018-07-01T00:53:49.442Z,68.66
2018-07-01T00:54:49.517Z,68.63
2018-07-01T00:55:49.519Z,69.44
2018-07-01T00:56:49.521Z,70.09
2018-07-01T00:57:49.468Z,70.45
2018-07-01T00:58:49.452Z,70.84
2018-07-01T00:59:49.481Z,71.26
2018-07-01T01:00:49.523Z,71.78
2018-07-01T01:01:49.454Z,72.48
2018-07-01T01:02:49.512Z,72.77
2018-07-01T01:03:49.454Z,72.67
2018-07-01T01:04:49.515Z,73.37
2018-07-01T01:05:49.493Z,74.18
2018-07-01T01:06:49.559Z,73.42
2018-07-01T01:07:49.535Z,73.16
2018-07-01T01:08:49.553Z,73.19
2018-07-01T01:09:49.562Z,73.27
2018-07-01T01:10:49.526Z,73.22
2018-07-01T01:11:49.487Z,73.53
2018-07-01T01:12:49.499Z,73.93
2018-07-01T01:13:49.445Z,73.93
2018-07-01T01:14:49.488Z,74.13
2018-07-01T01:15:49.556Z,75.02
2018-07-01T01:16:49.564Z,75.41
2018-07-01T01:17:49.499Z,75.60
2018-07-01T01:18:49.571Z,75.92
2018-07-01T01:19:49.562Z,76.20
2018-07-01T01:20:49.533Z,76.39
2018-07-01T01:21:49.508Z,77.31
2018-07-01T01:22:49.496Z,77.89
2018-07-01T01:23:49.535Z,78.31
2018-07-01T01:24:49.516Z,78.94
2018-07-01T01:25:49.562Z,79.33
2018-07-01T01:26:49.440Z,79.52
2018-07-01T01:27:49.492Z,79.55
2018-07-01T01:28:49.478Z,79.97
2018-07-01T01:29:49.540Z,80.13
2018-07-01T01:30:49.506Z,80.47
2018-07-01T01:31:49.505Z,80.76
2018-07-01T01:32:49.463Z,80.81
2018-07-01T01:33:49.522Z,80.47
2018-07-01T01:34:49.447Z,80.81
2018-07-01T01:35:49.485Z,80.65
2018-07-01T01:36:49.491Z,81.18
2018-07-01T01:37:49.463Z,81.13
2018-07-01T01:38:49.471Z,81.71
2018-07-01T01:39:49.537Z,81.82
2018-07-01T01:40:49.538Z,81.45
2018-07-01T01:41:49.467Z,81.95
2018-07-01T01:42:49.538Z,81.98
2018-07-01T01:43:49.541Z,82.27
2018-07-01T01:44:49.468Z,82.72
2018-07-01T01:45:49.515Z,83.14
2018-07-01T01:46:49.515Z,83.28
2018-07-01T01:47:49.519Z,83.38
2018-07-01T01:48:49.475Z,83.97
2018-07-01T01:49:49.480Z,84.07
2018-07-01T01:50:49.559Z,84.20
2018-07-01T01:51:49.558Z,84.76
2018-07-01T01:52:49.528Z,85.38
2018-07-01T01:53:49.516Z,85.96
2018-07-01T01:54:49.561Z,86.38
2018-07-01T01:55:49.491Z,86.41
2018-07-01T01:56:49.578Z,86.49
2018-07-01T01:57:49.488Z,86.30
2018-07-01T01:58:49.491Z,86.15
2018-07-01T01:59:49.562Z,86.04
2018-07-01T02:00:49.449Z,85.91
2018-07-01T02:01:49.568Z,86.07
2018-07-01T02:02:49.492Z,85.91
2018-07-01T02:03:49.562Z,85.91
2018-07-01T02:04:49.565Z,85.93
2018-07-01T02:05:49.554Z,86.15
2018-07-01T02:06:49.491Z,86.25
2018-07-01T02:07:49.624Z,86.07
2018-07-01T02:08:49.498Z,85.83
2018-07-01T02:09:49.460Z,85.93
2018-07-01T02:10:49.551Z,86.07
2018-07-01T02:11:49.495Z,85.93
2018-07-01T02:12:49.546Z,86.12
2018-07-01T02:13:49.503Z,86.38
2018-07-01T02:14:49.548Z,86.33
2018-07-01T02:15:49.564Z,86.15
2018-07-01T02:16:49.591Z,86.57
2018-07-01T02:17:49.565Z,87.61
2018-07-01T02:18:49.565Z,88.01
2018-07-01T02:19:49.561Z,88.41
2018-07-01T02:20:49.576Z,88.50
2018-07-01T02:21:49.567Z,88.39
2018-07-01T02:22:49.495Z,88.62
2018-07-01T02:23:49.492Z,89.08
2018-07-01T02:24:49.479Z,89.43
2018-07-01T02:25:49.498Z,89.59
2018-07-01T02:26:49.598Z,89.72
2018-07-01T02:27:49.549Z,89.83
2018-07-01T02:28:49.548Z,89.80
2018-07-01T02:29:49.601Z,90.02
2018-07-01T02:30:49.656Z,90.23
2018-07-01T02:31:49.503Z,90.36
2018-07-01T02:32:49.625Z,90.31
2018-07-01T02:33:49.504Z,90.05
2018-07-01T02:34:49.561Z,89.75
2018-07-01T02:35:49.626Z,89.94
2018-07-01T02:36:49.611Z,89.80
2018-07-01T02:37:49.553Z,89.64
2018-07-01T02:38:49.584Z,89.70
2018-07-01T02:39:49.505Z,89.56
2018-07-01T02:40:49.588Z,89.75
2018-07-01T02:41:49.524Z,89.94
2018-07-01T02:42:49.624Z,90.05
2018-07-01T02:43:49.619Z,89.80
2018-07-01T02:44:49.524Z,89.91
2018-07-01T02:45:49.607Z,89.83
2018-07-01T02:46:49.497Z,90.02
2018-07-01T02:47:49.609Z,89.99
2018-07-01T02:48:49.558Z,90.18
2018-07-01T02:49:49.621Z,90.66
2018-07-01T02:50:49.592Z,90.47
2018-07-01T02:51:49.531Z,90.63
2018-07-01T02:52:49.668Z,90.69
2018-07-01T02:53:49.628Z,90.74
2018-07-01T02:54:49.597Z,91.07
2018-07-01T02:55:49.635Z,91.33
2018-07-01T02:56:49.539Z,91.52
2018-07-01T02:57:49.561Z,91.38
2018-07-01T02:58:49.502Z,91.44
2018-07-01T02:59:49.588Z,91.49
2018-07-01T03:00:49.525Z,91.86
2018-07-01T03:01:49.601Z,91.92
2018-07-01T03:02:49.508Z,92.05
2018-07-01T03:03:49.636Z,92.11
2018-07-01T03:04:49.620Z,92.57
2018-07-01T03:05:49.596Z,92.78
2018-07-01T03:06:49.522Z,92.97
2018-07-01T03:07:49.569Z,92.99
2018-07-01T03:08:49.599Z,93.10
2018-07-01T03:09:49.607Z,93.45
2018-07-01T03:10:49.540Z,93.83
2018-07-01T03:11:49.607Z,94.26
2018-07-01T03:12:49.527Z,94.75
2018-07-01T03:13:49.533Z,94.83
2018-07-01T03:14:49.603Z,94.75
2018-07-01T03:15:49.609Z,94.69
2018-07-01T03:16:49.573Z,94.61
2018-07-01T03:17:49.550Z,94.61
2018-07-01T03:18:49.653Z,94.77
2018-07-01T03:19:49.534Z,95.01
2018-07-01T03:20:49.531Z,95.31
2018-07-01T03:21:49.656Z,95.50
2018-07-01T03:22:49.644Z,95.66
2018-07-01T03:23:49.614Z,95.85
2018-07-01T03:24:49.575Z,95.94
2018-07-01T03:25:49.524Z,95.98
2018-07-01T03:26:49.610Z,95.94
2018-07-01T03:27:49.691Z,95.96
2018-07-01T03:28:49.538Z,95.88
2018-07-01T03:29:49.608Z,95.75
2018-07-01T03:30:49.616Z,95.75
2018-07-01T03:31:49.636Z,95.66
2018-07-01T03:32:49.614Z,95.61
2018-07-01T03:33:49.609Z,95.75
2018-07-01T03:34:49.612Z,95.72
2018-07-01T03:35:49.627Z,95.64
2018-07-01T03:36:49.623Z,95.58
2018-07-01T03:37:49.590Z,95.50
2018-07-01T03:38:49.651Z,95.42
2018-07-01T03:39:49.528Z,95.34
2018-07-01T03:40:49.669Z,95.07
2018-07-01T03:41:49.663Z,94.96
2018-07-01T03:42:49.587Z,94.93
2018-07-01T03:43:49.566Z,95.04
2018-07-01T03:44:49.551Z,95.10
2018-07-01T03:45:49.630Z,95.04
2018-07-01T03:46:49.564Z,95.10
2018-07-01T03:47:49.631Z,95.20
2018-07-01T03:48:49.565Z,95.37
2018-07-01T03:49:49.633Z,95.61
2018-07-01T03:50:49.563Z,95.58
2018-07-01T03:51:49.632Z,95.72
2018-07-01T03:52:49.566Z,95.83
2018-07-01T03:53:49.572Z,95.94
2018-07-01T03:54:49.635Z,96.20
2018-07-01T03:55:49.566Z,96.42
2018-07-01T03:56:49.636Z,96.42
2018-07-01T03:57:49.698Z,96.45
2018-07-01T03:58:49.572Z,96.31
2018-07-01T03:59:49.638Z,96.17
2018-07-01T04:00:49.570Z,96.04
2018-07-01T04:01:49.651Z,95.98
2018-07-01T04:02:49.637Z,95.98
2018-07-01T04:03:49.649Z,96.02
2018-07-01T04:04:49.639Z,96.13
2018-07-01T04:05:49.598Z,96.15
2018-07-01T04:06:49.577Z,96.28
2018-07-01T04:07:49.538Z,96.31
2018-07-01T04:08:49.507Z,96.34
2018-07-01T04:09:49.518Z,96.26
2018-07-01T04:10:49.568Z,96.17
2018-07-01T04:11:49.535Z,96.17
2018-07-01T04:12:49.571Z,96.13
2018-07-01T04:13:49.515Z,96.17
2018-07-01T04:14:49.631Z,96.26
2018-07-01T04:15:49.599Z,96.31
2018-07-01T04:16:49.638Z,96.26
2018-07-01T04:17:49.641Z,96.02
2018-07-01T04:18:49.553Z,95.83
2018-07-01T04:19:49.558Z,95.85
2018-07-01T04:20:49.632Z,96.04
2018-07-01T04:21:49.559Z,96.17
2018-07-01T04:22:49.560Z,96.13
2018-07-01T04:23:49.643Z,95.96
2018-07-01T04:24:49.622Z,95.66
2018-07-01T04:25:49.590Z,95.61
2018-07-01T04:26:49.677Z,95.58
2018-07-01T04:27:49.692Z,95.42
2018-07-01T04:28:49.629Z,95.23
2018-07-01T04:29:49.620Z,95.07
2018-07-01T04:30:49.658Z,94.83
2018-07-01T04:31:49.696Z,94.72
2018-07-01T04:32:49.686Z,94.64
2018-07-01T04:33:49.661Z,94.72
2018-07-01T04:34:49.620Z,94.80
2018-07-01T04:35:49.603Z,94.99
2018-07-01T04:36:49.520Z,94.99
2018-07-01T04:37:49.559Z,94.99
2018-07-01T04:38:49.609Z,94.96
2018-07-01T04:39:49.515Z,94.86
2018-07-01T04:40:49.612Z,94.77
2018-07-01T04:41:49.561Z,94.96
2018-07-01T04:42:49.519Z,94.86
2018-07-01T04:43:49.520Z,95.04
2018-07-01T04:44:49.582Z,94.86
2018-07-01T04:45:49.655Z,95.04
2018-07-01T04:46:49.617Z,94.86
2018-07-01T04:47:49.595Z,95.10
2018-07-01T04:48:49.598Z,94.91
2018-07-01T04:49:49.595Z,94.48
2018-07-01T04:50:49.597Z,94.40
2018-07-01T04:51:49.652Z,94.26
2018-07-01T04:52:49.614Z,94.12
2018-07-01T04:53:49.621Z,93.89
2018-07-01T04:54:49.622Z,93.75
2018-07-01T04:55:49.538Z,93.64
2018-07-01T04:56:49.468Z,93.72
2018-07-01T04:57:49.547Z,93.67
2018-07-01T04:58:49.570Z,93.32
2018-07-01T04:59:49.509Z,93.10
2018-07-01T05:00:49.521Z,92.70
2018-07-01T05:01:49.519Z,92.49
2018-07-01T05:02:49.477Z,92.38
2018-07-01T05:03:49.569Z,92.24
2018-07-01T05:04:49.478Z,91.65
2018-07-01T05:05:49.687Z,91.41
2018-07-01T05:06:49.655Z,91.11
2018-07-01T05:07:49.720Z,90.61
2018-07-01T05:08:49.585Z,90.36
2018-07-01T05:09:49.684Z,90.18
2018-07-01T05:10:49.710Z,89.75
2018-07-01T05:11:49.651Z,88.97
2018-07-01T05:12:49.633Z,88.52
2018-07-01T05:13:49.669Z,87.80
2018-07-01T05:14:49.725Z,86.71
2018-07-01T05:15:49.699Z,84.05
2018-07-01T05:16:49.594Z,82.77
2018-07-01T05:17:49.703Z,81.60
2018-07-01T05:18:49.665Z,77.99
2018-07-01T05:19:49.710Z,76.83
2018-07-01T05:20:49.662Z,76.12
2018-07-01T05:21:49.671Z,74.21
2018-07-01T05:22:49.644Z,72.67
2018-07-01T05:23:49.660Z,72.41
2018-07-01T05:24:49.674Z,71.13
2018-07-01T05:25:49.717Z,71.44
2018-07-01T05:26:49.669Z,71.31
2018-07-01T05:27:49.731Z,70.50
2018-07-01T05:28:49.654Z,71.21
2018-07-01T05:29:49.703Z,68.97
2018-07-01T05:30:49.730Z,68.45
2018-07-01T05:31:49.716Z,67.36
2018-07-01T05:32:49.658Z,66.77
2018-07-01T05:33:49.729Z,67.05
2018-07-01T05:34:49.635Z,66.92
2018-07-01T05:35:49.699Z,65.53
2018-07-01T05:36:49.716Z,66.35
2018-07-01T05:37:49.604Z,65.42
2018-07-01T05:38:49.671Z,63.49
2018-07-01T05:39:49.680Z,62.71
2018-07-01T05:40:49.739Z,64.08
2018-07-01T05:41:49.606Z,63.85
2018-07-01T05:42:49.730Z,62.48
2018-07-01T05:43:49.617Z,63.18
2018-07-01T05:44:49.660Z,63.51
2018-07-01T05:45:49.708Z,63.49
2018-07-01T05:46:49.632Z,62.10
2018-07-01T05:47:49.682Z,62.40
2018-07-01T05:48:49.772Z,63.38
2018-07-01T05:49:49.669Z,61.94
2018-07-01T05:50:49.730Z,61.76
2018-07-01T05:51:49.677Z,59.50
2018-07-01T05:52:49.742Z,59.63
2018-07-01T05:53:49.710Z,59.78
2018-07-01T05:54:49.714Z,58.76
2018-07-01T05:55:49.756Z,58.96
2018-07-01T05:56:49.686Z,57.95
2018-07-01T05:57:49.636Z,56.61
2018-07-01T05:58:49.734Z,55.85
2018-07-01T05:59:49.690Z,55.45
2018-07-01T06:00:49.739Z,54.99
2018-07-01T06:01:49.692Z,54.61
2018-07-01T06:02:49.696Z,55.19
2018-07-01T06:03:49.678Z,56.18
2018-07-01T06:04:49.747Z,55.32
2018-07-01T06:05:49.660Z,54.83
2018-07-01T06:06:49.660Z,53.64
2018-07-01T06:07:49.725Z,53.14
2018-07-01T06:08:49.686Z,53.67
2018-07-01T06:09:49.733Z,53.47
2018-07-01T06:10:49.657Z,53.23
2018-07-01T06:11:49.727Z,52.96
2018-07-01T06:12:49.657Z,53.29
2018-07-01T06:13:49.660Z,51.82
2018-07-01T06:14:49.662Z,52.98
2018-07-01T06:15:49.715Z,51.44
2018-07-01T06:16:49.769Z,52.04
2018-07-01T06:17:49.728Z,50.66
2018-07-01T06:18:49.666Z,51.08
2018-07-01T06:19:49.777Z,51.92
2018-07-01T06:20:49.637Z,50.96
2018-07-01T06:21:49.774Z,52.02
2018-07-01T06:22:49.649Z,51.19
2018-07-01T06:23:49.701Z,49.97
2018-07-01T06:24:49.745Z,50.18
2018-07-01T06:25:49.640Z,51.04
2018-07-01T06:26:49.725Z,50.68
2018-07-01T06:27:49.639Z,49.90
2018-07-01T06:28:49.603Z,48.81
2018-07-01T06:29:49.730Z,49.64
2018-07-01T06:30:49.768Z,50.53
2018-07-01T06:31:49.727Z,50.07
2018-07-01T06:32:49.736Z,49.09
2018-07-01T06:33:49.627Z,48.36
2018-07-01T06:34:49.738Z,49.49
2018-07-01T06:35:49.780Z,48.99
2018-07-01T06:36:49.650Z,47.56
2018-07-01T06:37:49.717Z,48.01
2018-07-01T06:38:49.772Z,48.01
2018-07-01T06:39:49.773Z,49.19
2018-07-01T06:40:49.717Z,47.91
2018-07-01T06:41:49.812Z,49.14
2018-07-01T06:42:49.765Z,48.46
2018-07-01T06:43:49.725Z,48.48
2018-07-01T06:44:49.731Z,47.20
2018-07-01T06:45:49.653Z,47.31
2018-07-01T06:46:49.654Z,47.45
2018-07-01T06:47:49.749Z,47.10
2018-07-01T06:48:49.788Z,45.95
2018-07-01T06:49:49.749Z,47.03
2018-07-01T06:50:49.749Z,46.35
2018-07-01T06:51:49.677Z,48.66
2018-07-01T06:52:49.779Z,46.43
2018-07-01T06:53:49.785Z,45.48
2018-07-01T06:54:49.783Z,46.30
2018-07-01T06:55:49.696Z,45.37
2018-07-01T06:56:49.757Z,45.30
2018-07-01T06:57:49.761Z,46.12
2018-07-01T06:58:49.756Z,44.77
2018-07-01T06:59:49.771Z,44.68
2018-07-01T07:00:49.693Z,44.39
2018-07-01T07:01:49.696Z,44.80
2018-07-01T07:02:49.760Z,44.90
2018-07-01T07:03:49.738Z,45.07
2018-07-01T07:04:49.761Z,44.72
2018-07-01T07:05:49.734Z,44.95
2018-07-01T07:06:49.792Z,43.90
2018-07-01T07:07:49.917Z,44.39
2018-07-01T07:08:49.762Z,44.05
2018-07-01T07:09:49.787Z,45.00
2018-07-01T07:10:49.763Z,43.88
2018-07-01T07:11:49.784Z,44.15
2018-07-01T07:12:49.798Z,44.05
2018-07-01T07:13:49.769Z,45.52
2018-07-01T07:14:49.742Z,43.75
2018-07-01T07:15:49.702Z,44.12
2018-07-01T07:16:49.771Z,44.17
2018-07-01T07:17:49.771Z,42.87
2018-07-01T07:18:49.706Z,43.30
2018-07-01T07:19:49.701Z,42.45
2018-07-01T07:20:49.703Z,43.55
2018-07-01T07:21:49.806Z,42.60
2018-07-01T07:22:49.773Z,44.12
2018-07-01T07:23:49.775Z,43.95
2018-07-01T07:24:49.704Z,42.00
2018-07-01T07:25:49.799Z,41.53
2018-07-01T07:26:49.732Z,41.31
2018-07-01T07:27:49.809Z,42.78
2018-07-01T07:28:49.700Z,41.38
2018-07-01T07:29:49.746Z,41.03
2018-07-01T07:30:49.679Z,40.11
2018-07-01T07:31:49.733Z,42.37
2018-07-01T07:32:49.778Z,41.38
2018-07-01T07:33:49.719Z,40.73
2018-07-01T07:34:49.782Z,40.83
2018-07-01T07:35:49.798Z,40.43
2018-07-01T07:36:49.749Z,40.04
2018-07-01T07:37:49.805Z,39.44
2018-07-01T07:38:49.748Z,38.99
2018-07-01T07:39:49.804Z,39.91
2018-07-01T07:40:49.775Z,39.87
2018-07-01T07:41:49.788Z,37.98
2018-07-01T07:42:49.757Z,39.40
2018-07-01T07:43:49.826Z,37.66
2018-07-01T07:44:49.744Z,39.52
2018-07-01T07:45:49.825Z,38.82
2018-07-01T07:46:49.798Z,39.49
2018-07-01T07:47:49.767Z,38.57
2018-07-01T07:48:49.785Z,38.38
2018-07-01T07:49:49.796Z,39.82
2018-07-01T07:50:49.761Z,38.70
2018-07-01T07:51:49.764Z,39.22
2018-07-01T07:52:49.810Z,38.72
2018-07-01T07:53:49.822Z,38.38
2018-07-01T07:54:49.812Z,37.39
2018-07-01T07:55:49.797Z,37.96
2018-07-01T07:56:49.738Z,37.68
2018-07-01T07:57:49.729Z,36.57
2018-07-01T07:58:49.797Z,37.24
2018-07-01T07:59:49.804Z,37.27
2018-07-01T08:00:49.735Z,36.80
2018-07-01T08:01:49.731Z,37.22
2018-07-01T08:02:49.798Z,36.92
2018-07-01T08:03:49.730Z,37.27
2018-07-01T08:04:49.833Z,36.75
2018-07-01T08:05:49.733Z,38.23
2018-07-01T08:06:49.738Z,37.09
2018-07-01T08:07:49.846Z,37.56
2018-07-01T08:08:49.829Z,37.09
2018-07-01T08:09:49.827Z,37.39
2018-07-01T08:10:49.759Z,37.78
2018-07-01T08:11:49.777Z,38.90
2018-07-01T08:12:49.851Z,36.70
2018-07-01T08:13:49.811Z,37.39
2018-07-01T08:14:49.811Z,35.04
2018-07-01T08:15:49.839Z,38.05
2018-07-01T08:16:49.730Z,36.55
2018-07-01T08:17:49.716Z,36.40
2018-07-01T08:18:49.833Z,35.68
2018-07-01T08:19:49.826Z,35.59
2018-07-01T08:20:49.839Z,33.44
2018-07-01T08:21:49.894Z,33.47
2018-07-01T08:22:49.751Z,34.45
2018-07-01T08:23:49.829Z,35.19
2018-07-01T08:24:49.795Z,37.53
2018-07-01T08:25:49.788Z,34.87
2018-07-01T08:26:49.837Z,36.37
2018-07-01T08:27:49.776Z,34.60
2018-07-01T08:28:49.778Z,34.01
2018-07-01T08:29:49.846Z,35.56
2018-07-01T08:30:49.791Z,35.56
2018-07-01T08:31:49.794Z,36.62
2018-07-01T08:32:49.815Z,36.50
2018-07-01T08:33:49.854Z,35.39
2018-07-01T08:34:49.849Z,36.70
2018-07-01T08:35:49.843Z,34.80
2018-07-01T08:36:49.743Z,35.41
2018-07-01T08:37:49.760Z,36.00
2018-07-01T08:38:49.829Z,35.21
2018-07-01T08:39:49.861Z,34.52
2018-07-01T08:40:49.750Z,36.84
2018-07-01T08:41:49.829Z,35.78
2018-07-01T08:42:49.766Z,35.19
2018-07-01T08:43:49.781Z,35.41
2018-07-01T08:44:49.862Z,36.80
2018-07-01T08:45:49.786Z,33.96
2018-07-01T08:46:49.764Z,36.11
2018-07-01T08:47:49.831Z,35.31
2018-07-01T08:48:49.811Z,37.09
2018-07-01T08:49:49.827Z,35.98
2018-07-01T08:50:49.769Z,34.30
2018-07-01T08:51:49.836Z,36.11
2018-07-01T08:52:49.861Z,35.36
2018-07-01T08:53:49.768Z,35.68
2018-07-01T08:54:49.835Z,35.29
2018-07-01T08:55:49.833Z,35.88
2018-07-01T08:56:49.855Z,37.36
2018-07-01T08:57:49.863Z,37.53
2018-07-01T08:58:49.803Z,36.23
2018-07-01T08:59:49.870Z,35.26
2018-07-01T09:00:49.801Z,36.00
2018-07-01T09:01:49.815Z,35.61
2018-07-01T09:02:49.793Z,35.51
2018-07-01T09:03:49.857Z,37.04
2018-07-01T09:04:49.840Z,35.98
2018-07-01T09:05:49.880Z,36.67
2018-07-01T09:06:49.876Z,37.09
2018-07-01T09:07:49.781Z,36.64
2018-07-01T09:08:49.870Z,35.44
2018-07-01T09:09:49.876Z,36.94
2018-07-01T09:10:49.843Z,36.23
2018-07-01T09:11:49.868Z,33.94
2018-07-01T09:12:49.902Z,34.50
2018-07-01T09:13:49.807Z,34.16
2018-07-01T09:14:49.769Z,33.27
2018-07-01T09:15:49.885Z,35.19
2018-07-01T09:16:49.805Z,36.84
2018-07-01T09:17:49.851Z,33.79
2018-07-01T09:18:49.832Z,33.99
2018-07-01T09:19:49.862Z,36.00
2018-07-01T09:20:49.782Z,35.26
2018-07-01T09:21:49.856Z,34.57
2018-07-01T09:22:49.784Z,35.81
2018-07-01T09:23:49.789Z,34.09
2018-07-01T09:24:49.855Z,33.54
2018-07-01T09:25:49.792Z,33.37
2018-07-01T09:26:49.861Z,34.35
2018-07-01T09:27:49.803Z,35.24
2018-07-01T09:28:49.825Z,34.60
2018-07-01T09:29:49.859Z,34.80
2018-07-01T09:30:49.952Z,34.04
2018-07-01T09:31:49.790Z,35.04
2018-07-01T09:32:49.791Z,32.53
2018-07-01T09:33:49.800Z,34.60
2018-07-01T09:34:49.799Z,32.76
2018-07-01T09:35:49.864Z,33.00
2018-07-01T09:36:49.837Z,33.15
2018-07-01T09:37:49.849Z,33.66
2018-07-01T09:38:49.843Z,33.64
2018-07-01T09:39:49.820Z,33.81
2018-07-01T09:40:49.756Z,34.95
2018-07-01T09:41:49.732Z,34.09
2018-07-01T09:42:49.850Z,34.45
2018-07-01T09:43:49.758Z,35.46
2018-07-01T09:44:49.760Z,33.10
2018-07-01T09:45:49.831Z,32.39
2018-07-01T09:46:49.803Z,34.04
2018-07-01T09:47:49.870Z,32.81
2018-07-01T09:48:49.871Z,32.98
2018-07-01T09:49:49.910Z,33.08
2018-07-01T09:50:49.805Z,32.91
2018-07-01T09:51:49.875Z,34.77
2018-07-01T09:52:49.806Z,35.56
2018-07-01T09:53:49.873Z,32.63
2018-07-01T09:54:49.879Z,33.91
2018-07-01T09:55:49.878Z,34.38
2018-07-01T09:56:49.812Z,32.71
2018-07-01T09:57:49.818Z,33.71
2018-07-01T09:58:49.896Z,33.03
2018-07-01T09:59:49.846Z,31.00
2018-07-01T10:00:49.884Z,32.00
2018-07-01T10:01:49.911Z,32.53
2018-07-01T10:02:49.781Z,32.71
2018-07-01T10:03:49.898Z,32.58
2018-07-01T10:04:49.926Z,32.63
2018-07-01T10:05:49.851Z,32.32
2018-07-01T10:06:49.881Z,33.35
2018-07-01T10:07:49.914Z,32.27
2018-07-01T10:08:49.914Z,35.66
2018-07-01T10:09:49.922Z,31.39
2018-07-01T10:10:49.888Z,31.27
2018-07-01T10:11:49.868Z,33.25
2018-07-01T10:12:49.886Z,32.71
2018-07-01T10:13:49.796Z,32.76
2018-07-01T10:14:49.869Z,33.57
2018-07-01T10:15:49.925Z,36.25
2018-07-01T10:16:49.916Z,32.79
2018-07-01T10:17:49.917Z,32.76
2018-07-01T10:18:49.933Z,31.36
2018-07-01T10:19:49.876Z,31.70
2018-07-01T10:20:49.928Z,32.86
2018-07-01T10:21:49.892Z,32.14
2018-07-01T10:22:49.894Z,32.56
2018-07-01T10:23:49.919Z,31.14
2018-07-01T10:24:49.837Z,30.83
2018-07-01T10:25:49.815Z,35.04
2018-07-01T10:26:49.863Z,31.36
2018-07-01T10:27:49.867Z,32.14
2018-07-01T10:28:49.935Z,31.34
2018-07-01T10:29:49.817Z,31.78
2018-07-01T10:30:49.876Z,31.92
2018-07-01T10:31:49.921Z,32.83
2018-07-01T10:32:49.838Z,32.12
2018-07-01T10:33:49.821Z,33.54
2018-07-01T10:34:49.881Z,31.95
2018-07-01T10:35:49.826Z,32.86
2018-07-01T10:36:49.849Z,31.22
2018-07-01T10:37:49.838Z,33.05
2018-07-01T10:38:49.810Z,31.75
2018-07-01T10:39:49.917Z,30.70
2018-07-01T10:40:49.905Z,32.07
2018-07-01T10:41:49.914Z,30.70
2018-07-01T10:42:49.912Z,31.51
2018-07-01T10:43:49.847Z,30.63
2018-07-01T10:44:49.908Z,33.22
2018-07-01T10:45:49.868Z,30.87
2018-07-01T10:46:49.904Z,31.07
2018-07-01T10:47:49.895Z,30.75
2018-07-01T10:48:49.914Z,30.85
2018-07-01T10:49:49.799Z,31.22
2018-07-01T10:50:49.900Z,32.91
2018-07-01T10:51:49.785Z,31.90
2018-07-01T10:52:49.820Z,32.68
2018-07-01T10:53:49.832Z,32.58
2018-07-01T10:54:49.831Z,32.76
2018-07-01T10:55:49.896Z,32.14
2018-07-01T10:56:49.899Z,32.86
2018-07-01T10:57:49.942Z,31.53
2018-07-01T10:58:49.960Z,31.36
2018-07-01T10:59:49.944Z,32.71
2018-07-01T11:00:49.962Z,30.83
2018-07-01T11:01:49.947Z,31.02
2018-07-01T11:02:49.840Z,31.58
2018-07-01T11:03:49.944Z,31.48
2018-07-01T11:04:49.941Z,32.49
2018-07-01T11:05:49.872Z,32.24
2018-07-01T11:06:49.928Z,32.71
2018-07-01T11:07:49.924Z,31.80
2018-07-01T11:08:49.858Z,33.64
2018-07-01T11:09:49.923Z,33.08
2018-07-01T11:10:49.823Z,32.71
2018-07-01T11:11:49.976Z,31.53
2018-07-01T11:12:49.928Z,32.86
2018-07-01T11:13:49.858Z,31.73
2018-07-01T11:14:49.925Z,32.02
2018-07-01T11:15:49.891Z,32.74
2018-07-01T11:16:49.863Z,33.40
2018-07-01T11:17:49.933Z,33.89
2018-07-01T11:18:49.862Z,33.10
2018-07-01T11:19:49.931Z,32.86
2018-07-01T11:20:49.866Z,32.39
2018-07-01T11:21:49.937Z,32.96
2018-07-01T11:22:49.932Z,31.70
2018-07-01T11:23:49.898Z,34.21
2018-07-01T11:24:49.933Z,30.75
2018-07-01T11:25:49.867Z,30.83
2018-07-01T11:26:50.086Z,30.95
2018-07-01T11:27:49.908Z,32.19
2018-07-01T11:28:49.979Z,31.07
2018-07-01T11:29:49.936Z,31.00
2018-07-01T11:30:49.855Z,31.09
2018-07-01T11:31:49.969Z,30.95
2018-07-01T11:32:49.962Z,31.31
2018-07-01T11:33:49.863Z,31.92
2018-07-01T11:34:49.904Z,30.46
2018-07-01T11:35:49.868Z,31.19
2018-07-01T11:36:49.948Z,31.83
2018-07-01T11:37:49.876Z,30.83
2018-07-01T11:38:49.944Z,29.77
2018-07-01T11:39:49.879Z,30.75
2018-07-01T11:40:49.879Z,32.86
2018-07-01T11:41:49.946Z,30.46
2018-07-01T11:42:49.882Z,32.17
2018-07-01T11:43:49.883Z,28.62
2018-07-01T11:44:49.880Z,30.17
2018-07-01T11:45:49.949Z,32.49
2018-07-01T11:46:49.854Z,32.74
2018-07-01T11:47:49.906Z,29.14
2018-07-01T11:48:49.870Z,28.29
2018-07-01T11:49:49.951Z,29.39
2018-07-01T11:50:49.879Z,29.98
2018-07-01T11:51:49.921Z,29.98
2018-07-01T11:52:49.921Z,30.44
2018-07-01T11:53:49.982Z,31.31
2018-07-01T11:54:49.935Z,31.07
2018-07-01T11:55:49.929Z,31.90
2018-07-01T11:56:49.876Z,31.48
2018-07-01T11:57:49.846Z,30.29
2018-07-01T11:58:49.850Z,30.12
2018-07-01T11:59:49.943Z,30.95
2018-07-01T12:00:49.878Z,29.71
2018-07-01T12:01:49.947Z,31.95
2018-07-01T12:02:49.917Z,29.53
2018-07-01T12:03:49.848Z,30.58
2018-07-01T12:05:02.955Z,29.18
2018-07-01T12:05:49.940Z,30.00
2018-07-01T12:06:49.992Z,29.00
2018-07-01T12:07:49.866Z,30.48
2018-07-01T12:08:49.997Z,29.34
2018-07-01T12:09:49.959Z,29.53
2018-07-01T12:10:49.929Z,29.55
2018-07-01T12:11:49.981Z,30.12
2018-07-01T12:12:49.964Z,29.75
2018-07-01T12:13:49.932Z,28.90
2018-07-01T12:14:49.947Z,31.07
2018-07-01T12:15:49.986Z,29.18
2018-07-01T12:16:49.996Z,27.54
2018-07-01T12:17:49.941Z,31.66
2018-07-01T12:18:50.000Z,28.35
2018-07-01T12:19:49.932Z,29.77
2018-07-01T12:20:50.013Z,28.54
2018-07-01T12:21:50.003Z,27.83
2018-07-01T12:22:49.972Z,28.18
2018-07-01T12:23:50.000Z,28.21
2018-07-01T12:24:49.943Z,28.49
2018-07-01T12:25:50.000Z,28.98
2018-07-01T12:26:49.975Z,28.32
2018-07-01T12:27:49.895Z,27.96
2018-07-01T12:28:50.046Z,29.12
2018-07-01T12:29:50.007Z,28.63
2018-07-01T12:30:49.960Z,27.98
2018-07-01T12:31:49.978Z,28.21
2018-07-01T12:32:49.891Z,29.34
2018-07-01T12:33:50.029Z,28.48
2018-07-01T12:34:49.901Z,28.60
2018-07-01T12:35:49.992Z,30.85
2018-07-01T12:36:49.980Z,27.47
2018-07-01T12:37:50.008Z,26.35
2018-07-01T12:38:49.983Z,26.71
2018-07-01T12:39:50.009Z,29.18
2018-07-01T12:40:49.944Z,28.26
2018-07-01T12:41:49.951Z,27.91
2018-07-01T12:42:49.949Z,26.88
2018-07-01T12:43:49.906Z,26.41
2018-07-01T12:44:50.005Z,28.62
2018-07-01T12:45:49.944Z,27.02
2018-07-01T12:46:49.928Z,27.20
2018-07-01T12:47:50.017Z,28.35
2018-07-01T12:48:50.016Z,27.80
2018-07-01T12:49:49.949Z,26.72
2018-07-01T12:50:49.933Z,27.68
2018-07-01T12:51:49.895Z,27.60
2018-07-01T12:52:50.018Z,27.68